sensor_id;sensor_type;location;lat;lon;timestamp;P1;durP1;ratioP1;P2;durP2;ratioP2
20110;SDS011;10216;42.658;23.248;2024-02-21T00:01:22;0.90;;;0.77;;
20110;SDS011;10216;42.658;23.248;2024-02-21T00:03:47;0.83;;;0.83;;
20110;SDS011;10216;42.658;23.248;2024-02-21T00:06:13;1.10;;;1.00;;
20110;SDS011;10216;42.658;23.248;2024-02-21T00:08:38;0.70;;;0.70;;
20110;SDS011;10216;42.658;23.248;2024-02-21T00:11:03;0.83;;;0.80;;
20110;SDS011;10216;42.658;23.248;2024-02-21T00:13:29;1.90;;;1.17;;
20110;SDS011;10216;42.658;23.248;2024-02-21T00:15:54;1.17;;;1.10;;
20110;SDS011;10216;42.658;23.248;2024-02-21T00:18:20;0.43;;;0.43;;
20110;SDS011;10216;42.658;23.248;2024-02-21T00:20:45;0.63;;;0.57;;
20110;SDS011;10216;42.658;23.248;2024-02-21T00:23:10;0.53;;;0.53;;
20110;SDS011;10216;42.658;23.248;2024-02-21T00:25:36;0.30;;;0.30;;
20110;SDS011;10216;42.658;23.248;2024-02-21T00:28:01;0.70;;;0.50;;
20110;SDS011;10216;42.658;23.248;2024-02-21T00:30:26;1.03;;;0.80;;
20110;SDS011;10216;42.658;23.248;2024-02-21T00:32:52;0.77;;;0.77;;
20110;SDS011;10216;42.658;23.248;2024-02-21T00:35:17;0.30;;;0.30;;
20110;SDS011;10216;42.658;23.248;2024-02-21T00:37:43;0.57;;;0.57;;
20110;SDS011;10216;42.658;23.248;2024-02-21T00:40:08;0.83;;;0.60;;
20110;SDS011;10216;42.658;23.248;2024-02-21T00:42:33;0.70;;;0.70;;
20110;SDS011;10216;42.658;23.248;2024-02-21T00:44:59;1.17;;;0.77;;
20110;SDS011;10216;42.658;23.248;2024-02-21T00:47:24;1.20;;;0.87;;
20110;SDS011;10216;42.658;23.248;2024-02-21T00:49:50;0.70;;;0.70;;
20110;SDS011;10216;42.658;23.248;2024-02-21T00:52:15;1.00;;;0.90;;
20110;SDS011;10216;42.658;23.248;2024-02-21T00:54:40;1.60;;;1.03;;
20110;SDS011;10216;42.658;23.248;2024-02-21T00:57:06;0.50;;;0.47;;
20110;SDS011;10216;42.658;23.248;2024-02-21T00:59:31;1.13;;;0.73;;
20110;SDS011;10216;42.658;23.248;2024-02-21T01:01:57;0.63;;;0.63;;
20110;SDS011;10216;42.658;23.248;2024-02-21T01:04:22;0.97;;;0.63;;
20110;SDS011;10216;42.658;23.248;2024-02-21T01:06:49;0.93;;;0.93;;
20110;SDS011;10216;42.658;23.248;2024-02-21T01:09:14;0.70;;;0.70;;
20110;SDS011;10216;42.658;23.248;2024-02-21T01:11:40;0.70;;;0.70;;
20110;SDS011;10216;42.658;23.248;2024-02-21T01:14:05;1.03;;;0.97;;
20110;SDS011;10216;42.658;23.248;2024-02-21T01:16:30;2.40;;;0.60;;
20110;SDS011;10216;42.658;23.248;2024-02-21T01:18:56;1.30;;;0.70;;
20110;SDS011;10216;42.658;23.248;2024-02-21T01:21:21;0.63;;;0.63;;
20110;SDS011;10216;42.658;23.248;2024-02-21T01:23:46;0.57;;;0.57;;
20110;SDS011;10216;42.658;23.248;2024-02-21T01:26:12;0.57;;;0.57;;
20110;SDS011;10216;42.658;23.248;2024-02-21T01:28:40;0.93;;;0.77;;
20110;SDS011;10216;42.658;23.248;2024-02-21T01:31:05;2.00;;;1.13;;
20110;SDS011;10216;42.658;23.248;2024-02-21T01:33:31;0.83;;;0.83;;
20110;SDS011;10216;42.658;23.248;2024-02-21T01:36:02;1.17;;;1.10;;
20110;SDS011;10216;42.658;23.248;2024-02-21T01:38:28;1.37;;;1.20;;
20110;SDS011;10216;42.658;23.248;2024-02-21T01:40:54;1.20;;;1.10;;
20110;SDS011;10216;42.658;23.248;2024-02-21T01:43:19;1.37;;;1.27;;
20110;SDS011;10216;42.658;23.248;2024-02-21T01:45:52;1.23;;;1.23;;
20110;SDS011;10216;42.658;23.248;2024-02-21T01:48:18;1.50;;;1.03;;
20110;SDS011;10216;42.658;23.248;2024-02-21T01:50:44;0.80;;;0.80;;
20110;SDS011;10216;42.658;23.248;2024-02-21T01:53:10;1.60;;;1.37;;
20110;SDS011;10216;42.658;23.248;2024-02-21T01:55:35;1.33;;;1.27;;
20110;SDS011;10216;42.658;23.248;2024-02-21T01:58:01;1.53;;;1.43;;
20110;SDS011;10216;42.658;23.248;2024-02-21T02:00:26;1.37;;;1.30;;
20110;SDS011;10216;42.658;23.248;2024-02-21T02:02:52;1.33;;;1.20;;
20110;SDS011;10216;42.658;23.248;2024-02-21T02:05:18;1.47;;;1.03;;
20110;SDS011;10216;42.658;23.248;2024-02-21T02:07:46;1.37;;;1.27;;
20110;SDS011;10216;42.658;23.248;2024-02-21T02:10:11;0.53;;;0.50;;
20110;SDS011;10216;42.658;23.248;2024-02-21T02:12:36;0.80;;;0.80;;
20110;SDS011;10216;42.658;23.248;2024-02-21T02:15:02;1.87;;;1.77;;
20110;SDS011;10216;42.658;23.248;2024-02-21T02:17:30;1.07;;;1.00;;
20110;SDS011;10216;42.658;23.248;2024-02-21T02:19:56;1.93;;;1.70;;
20110;SDS011;10216;42.658;23.248;2024-02-21T02:22:28;1.63;;;1.53;;
20110;SDS011;10216;42.658;23.248;2024-02-21T02:24:54;1.50;;;1.40;;
20110;SDS011;10216;42.658;23.248;2024-02-21T02:27:20;1.17;;;1.07;;
20110;SDS011;10216;42.658;23.248;2024-02-21T02:29:45;9.10;;;1.83;;
20110;SDS011;10216;42.658;23.248;2024-02-21T02:32:10;1.80;;;1.57;;
20110;SDS011;10216;42.658;23.248;2024-02-21T02:34:36;3.07;;;2.00;;
20110;SDS011;10216;42.658;23.248;2024-02-21T02:37:01;1.53;;;1.43;;
20110;SDS011;10216;42.658;23.248;2024-02-21T02:39:26;1.70;;;1.60;;
20110;SDS011;10216;42.658;23.248;2024-02-21T02:41:52;2.33;;;1.40;;
20110;SDS011;10216;42.658;23.248;2024-02-21T02:44:17;5.23;;;1.80;;
20110;SDS011;10216;42.658;23.248;2024-02-21T02:46:42;1.30;;;1.20;;
20110;SDS011;10216;42.658;23.248;2024-02-21T02:49:08;4.70;;;2.40;;
20110;SDS011;10216;42.658;23.248;2024-02-21T02:51:33;1.97;;;1.87;;
20110;SDS011;10216;42.658;23.248;2024-02-21T02:53:58;3.27;;;1.57;;
20110;SDS011;10216;42.658;23.248;2024-02-21T02:56:24;5.50;;;1.53;;
20110;SDS011;10216;42.658;23.248;2024-02-21T02:58:49;2.17;;;1.80;;
20110;SDS011;10216;42.658;23.248;2024-02-21T03:01:14;2.10;;;1.90;;
20110;SDS011;10216;42.658;23.248;2024-02-21T03:03:40;1.43;;;1.23;;
20110;SDS011;10216;42.658;23.248;2024-02-21T03:06:05;1.33;;;1.33;;
20110;SDS011;10216;42.658;23.248;2024-02-21T03:08:30;1.77;;;1.63;;
20110;SDS011;10216;42.658;23.248;2024-02-21T03:10:56;2.10;;;2.00;;
20110;SDS011;10216;42.658;23.248;2024-02-21T03:13:21;0.93;;;0.90;;
20110;SDS011;10216;42.658;23.248;2024-02-21T03:15:46;1.47;;;1.40;;
20110;SDS011;10216;42.658;23.248;2024-02-21T03:18:12;2.30;;;2.03;;
20110;SDS011;10216;42.658;23.248;2024-02-21T03:20:37;1.27;;;1.27;;
20110;SDS011;10216;42.658;23.248;2024-02-21T03:23:02;1.30;;;1.20;;
20110;SDS011;10216;42.658;23.248;2024-02-21T03:25:28;2.03;;;1.93;;
20110;SDS011;10216;42.658;23.248;2024-02-21T03:27:53;1.37;;;1.33;;
20110;SDS011;10216;42.658;23.248;2024-02-21T03:30:18;2.10;;;1.60;;
20110;SDS011;10216;42.658;23.248;2024-02-21T03:32:44;1.37;;;1.27;;
20110;SDS011;10216;42.658;23.248;2024-02-21T03:35:09;0.97;;;0.90;;
20110;SDS011;10216;42.658;23.248;2024-02-21T03:37:34;1.97;;;1.57;;
20110;SDS011;10216;42.658;23.248;2024-02-21T03:40:00;1.23;;;1.17;;
20110;SDS011;10216;42.658;23.248;2024-02-21T03:42:25;2.87;;;2.00;;
20110;SDS011;10216;42.658;23.248;2024-02-21T03:44:50;1.70;;;1.57;;
20110;SDS011;10216;42.658;23.248;2024-02-21T03:47:16;1.47;;;1.37;;
20110;SDS011;10216;42.658;23.248;2024-02-21T03:49:41;2.07;;;1.87;;
20110;SDS011;10216;42.658;23.248;2024-02-21T03:52:07;1.70;;;1.40;;
20110;SDS011;10216;42.658;23.248;2024-02-21T03:54:33;2.57;;;2.37;;
20110;SDS011;10216;42.658;23.248;2024-02-21T03:56:58;3.37;;;2.17;;
20110;SDS011;10216;42.658;23.248;2024-02-21T03:59:23;2.27;;;2.17;;
20110;SDS011;10216;42.658;23.248;2024-02-21T04:01:52;3.40;;;1.63;;
20110;SDS011;10216;42.658;23.248;2024-02-21T04:04:17;1.80;;;1.70;;
20110;SDS011;10216;42.658;23.248;2024-02-21T04:06:49;1.80;;;1.37;;
20110;SDS011;10216;42.658;23.248;2024-02-21T04:09:15;2.37;;;2.20;;
20110;SDS011;10216;42.658;23.248;2024-02-21T04:11:40;2.80;;;2.50;;
20110;SDS011;10216;42.658;23.248;2024-02-21T04:14:05;2.17;;;2.00;;
20110;SDS011;10216;42.658;23.248;2024-02-21T04:16:31;2.53;;;1.73;;
20110;SDS011;10216;42.658;23.248;2024-02-21T04:18:56;2.50;;;1.73;;
20110;SDS011;10216;42.658;23.248;2024-02-21T04:21:22;1.53;;;1.43;;
20110;SDS011;10216;42.658;23.248;2024-02-21T04:23:47;2.20;;;1.53;;
20110;SDS011;10216;42.658;23.248;2024-02-21T04:26:12;1.97;;;1.87;;
20110;SDS011;10216;42.658;23.248;2024-02-21T04:28:38;1.40;;;1.30;;
20110;SDS011;10216;42.658;23.248;2024-02-21T04:31:03;2.13;;;1.97;;
20110;SDS011;10216;42.658;23.248;2024-02-21T04:33:29;2.27;;;2.10;;
20110;SDS011;10216;42.658;23.248;2024-02-21T04:35:54;1.60;;;1.50;;
20110;SDS011;10216;42.658;23.248;2024-02-21T04:38:20;1.53;;;1.37;;
20110;SDS011;10216;42.658;23.248;2024-02-21T04:40:45;1.33;;;1.23;;
20110;SDS011;10216;42.658;23.248;2024-02-21T04:43:10;1.70;;;1.60;;
20110;SDS011;10216;42.658;23.248;2024-02-21T04:45:36;2.17;;;1.97;;
20110;SDS011;10216;42.658;23.248;2024-02-21T04:48:01;1.80;;;1.70;;
20110;SDS011;10216;42.658;23.248;2024-02-21T04:50:26;1.93;;;1.57;;
20110;SDS011;10216;42.658;23.248;2024-02-21T04:52:52;1.73;;;1.40;;
20110;SDS011;10216;42.658;23.248;2024-02-21T04:55:17;3.33;;;1.60;;
20110;SDS011;10216;42.658;23.248;2024-02-21T04:57:43;2.33;;;2.13;;
20110;SDS011;10216;42.658;23.248;2024-02-21T05:00:08;1.17;;;1.17;;
20110;SDS011;10216;42.658;23.248;2024-02-21T05:02:34;1.50;;;1.30;;
20110;SDS011;10216;42.658;23.248;2024-02-21T05:04:59;1.10;;;1.10;;
20110;SDS011;10216;42.658;23.248;2024-02-21T05:07:25;1.67;;;1.57;;
20110;SDS011;10216;42.658;23.248;2024-02-21T05:09:50;2.77;;;2.57;;
20110;SDS011;10216;42.658;23.248;2024-02-21T05:12:16;1.67;;;1.57;;
20110;SDS011;10216;42.658;23.248;2024-02-21T05:14:41;2.70;;;2.03;;
20110;SDS011;10216;42.658;23.248;2024-02-21T05:17:06;1.67;;;1.57;;
20110;SDS011;10216;42.658;23.248;2024-02-21T05:19:32;0.93;;;0.93;;
20110;SDS011;10216;42.658;23.248;2024-02-21T05:21:58;1.13;;;1.13;;
20110;SDS011;10216;42.658;23.248;2024-02-21T05:24:23;1.47;;;1.40;;
20110;SDS011;10216;42.658;23.248;2024-02-21T05:26:49;1.23;;;1.13;;
20110;SDS011;10216;42.658;23.248;2024-02-21T05:29:14;13.73;;;1.93;;
20110;SDS011;10216;42.658;23.248;2024-02-21T05:31:54;2.07;;;1.77;;
20110;SDS011;10216;42.658;23.248;2024-02-21T05:34:20;0.80;;;0.80;;
20110;SDS011;10216;42.658;23.248;2024-02-21T05:36:46;2.67;;;2.20;;
20110;SDS011;10216;42.658;23.248;2024-02-21T05:39:11;2.50;;;2.30;;
20110;SDS011;10216;42.658;23.248;2024-02-21T05:41:36;2.17;;;1.97;;
20110;SDS011;10216;42.658;23.248;2024-02-21T05:44:02;1.80;;;1.70;;
20110;SDS011;10216;42.658;23.248;2024-02-21T05:46:27;1.30;;;1.27;;
20110;SDS011;10216;42.658;23.248;2024-02-21T05:48:53;1.90;;;1.40;;
20110;SDS011;10216;42.658;23.248;2024-02-21T05:51:18;4.03;;;1.30;;
20110;SDS011;10216;42.658;23.248;2024-02-21T05:53:43;2.37;;;2.07;;
20110;SDS011;10216;42.658;23.248;2024-02-21T05:56:12;1.67;;;1.57;;
20110;SDS011;10216;42.658;23.248;2024-02-21T05:58:37;1.50;;;1.33;;
20110;SDS011;10216;42.658;23.248;2024-02-21T06:01:02;1.97;;;1.83;;
20110;SDS011;10216;42.658;23.248;2024-02-21T06:03:28;1.53;;;1.43;;
20110;SDS011;10216;42.658;23.248;2024-02-21T06:05:54;1.13;;;1.03;;
20110;SDS011;10216;42.658;23.248;2024-02-21T06:08:19;10.10;;;2.57;;
20110;SDS011;10216;42.658;23.248;2024-02-21T06:10:45;3.57;;;1.73;;
20110;SDS011;10216;42.658;23.248;2024-02-21T06:13:10;3.30;;;2.83;;
20110;SDS011;10216;42.658;23.248;2024-02-21T06:15:35;2.47;;;1.90;;
20110;SDS011;10216;42.658;23.248;2024-02-21T06:18:01;3.90;;;1.60;;
20110;SDS011;10216;42.658;23.248;2024-02-21T06:20:26;2.00;;;1.80;;
20110;SDS011;10216;42.658;23.248;2024-02-21T06:22:51;4.90;;;3.17;;
20110;SDS011;10216;42.658;23.248;2024-02-21T06:25:17;1.83;;;1.73;;
20110;SDS011;10216;42.658;23.248;2024-02-21T06:27:43;1.60;;;1.37;;
20110;SDS011;10216;42.658;23.248;2024-02-21T06:30:08;2.03;;;1.83;;
20110;SDS011;10216;42.658;23.248;2024-02-21T06:32:34;2.27;;;2.07;;
20110;SDS011;10216;42.658;23.248;2024-02-21T06:34:59;2.20;;;2.00;;
20110;SDS011;10216;42.658;23.248;2024-02-21T06:37:26;5.53;;;1.67;;
20110;SDS011;10216;42.658;23.248;2024-02-21T06:39:52;1.53;;;1.43;;
20110;SDS011;10216;42.658;23.248;2024-02-21T06:42:17;2.53;;;2.20;;
20110;SDS011;10216;42.658;23.248;2024-02-21T06:44:43;2.53;;;1.87;;
20110;SDS011;10216;42.658;23.248;2024-02-21T06:47:09;2.60;;;1.80;;
20110;SDS011;10216;42.658;23.248;2024-02-21T06:49:34;1.27;;;1.17;;
20110;SDS011;10216;42.658;23.248;2024-02-21T06:51:59;3.23;;;2.00;;
20110;SDS011;10216;42.658;23.248;2024-02-21T06:54:25;2.33;;;2.13;;
20110;SDS011;10216;42.658;23.248;2024-02-21T06:56:50;2.03;;;1.57;;
20110;SDS011;10216;42.658;23.248;2024-02-21T06:59:15;1.93;;;1.30;;
20110;SDS011;10216;42.658;23.248;2024-02-21T07:01:44;7.83;;;2.73;;
20110;SDS011;10216;42.658;23.248;2024-02-21T07:04:10;2.23;;;1.77;;
20110;SDS011;10216;42.658;23.248;2024-02-21T07:06:35;2.03;;;1.87;;
20110;SDS011;10216;42.658;23.248;2024-02-21T07:09:00;3.17;;;2.07;;
20110;SDS011;10216;42.658;23.248;2024-02-21T07:11:26;5.43;;;1.93;;
20110;SDS011;10216;42.658;23.248;2024-02-21T07:13:51;2.80;;;2.60;;
20110;SDS011;10216;42.658;23.248;2024-02-21T07:16:17;3.13;;;2.70;;
20110;SDS011;10216;42.658;23.248;2024-02-21T07:18:42;2.20;;;2.00;;
20110;SDS011;10216;42.658;23.248;2024-02-21T07:21:07;2.23;;;2.13;;
20110;SDS011;10216;42.658;23.248;2024-02-21T07:23:33;2.30;;;2.10;;
20110;SDS011;10216;42.658;23.248;2024-02-21T07:25:58;2.50;;;2.30;;
20110;SDS011;10216;42.658;23.248;2024-02-21T07:28:23;4.37;;;2.30;;
20110;SDS011;10216;42.658;23.248;2024-02-21T07:30:49;2.37;;;2.27;;
20110;SDS011;10216;42.658;23.248;2024-02-21T07:33:14;3.27;;;2.30;;
20110;SDS011;10216;42.658;23.248;2024-02-21T07:35:39;3.33;;;2.33;;
20110;SDS011;10216;42.658;23.248;2024-02-21T07:38:06;2.03;;;1.73;;
20110;SDS011;10216;42.658;23.248;2024-02-21T07:40:33;2.40;;;2.03;;
20110;SDS011;10216;42.658;23.248;2024-02-21T07:42:58;3.00;;;2.37;;
20110;SDS011;10216;42.658;23.248;2024-02-21T07:45:24;3.63;;;2.90;;
20110;SDS011;10216;42.658;23.248;2024-02-21T07:47:49;6.07;;;2.97;;
20110;SDS011;10216;42.658;23.248;2024-02-21T07:50:15;3.47;;;3.17;;
20110;SDS011;10216;42.658;23.248;2024-02-21T07:52:40;2.30;;;2.10;;
20110;SDS011;10216;42.658;23.248;2024-02-21T07:55:05;3.20;;;2.90;;
20110;SDS011;10216;42.658;23.248;2024-02-21T07:57:31;2.93;;;1.77;;
20110;SDS011;10216;42.658;23.248;2024-02-21T07:59:56;2.63;;;2.37;;
20110;SDS011;10216;42.658;23.248;2024-02-21T08:02:21;5.03;;;2.90;;
20110;SDS011;10216;42.658;23.248;2024-02-21T08:04:47;2.00;;;1.77;;
20110;SDS011;10216;42.658;23.248;2024-02-21T08:07:12;4.70;;;3.03;;
20110;SDS011;10216;42.658;23.248;2024-02-21T08:09:39;2.60;;;2.33;;
20110;SDS011;10216;42.658;23.248;2024-02-21T08:12:04;3.00;;;2.70;;
20110;SDS011;10216;42.658;23.248;2024-02-21T08:14:30;4.73;;;2.20;;
20110;SDS011;10216;42.658;23.248;2024-02-21T08:16:55;2.20;;;2.00;;
20110;SDS011;10216;42.658;23.248;2024-02-21T08:19:21;3.87;;;2.20;;
20110;SDS011;10216;42.658;23.248;2024-02-21T08:21:46;3.37;;;2.43;;
20110;SDS011;10216;42.658;23.248;2024-02-21T08:24:12;4.43;;;3.03;;
20110;SDS011;10216;42.658;23.248;2024-02-21T08:26:40;3.67;;;2.90;;
20110;SDS011;10216;42.658;23.248;2024-02-21T08:29:05;3.13;;;2.80;;
20110;SDS011;10216;42.658;23.248;2024-02-21T08:31:30;4.67;;;3.63;;
20110;SDS011;10216;42.658;23.248;2024-02-21T08:33:59;4.90;;;3.43;;
20110;SDS011;10216;42.658;23.248;2024-02-21T08:36:31;3.40;;;2.80;;
20110;SDS011;10216;42.658;23.248;2024-02-21T08:38:57;5.67;;;3.57;;
20110;SDS011;10216;42.658;23.248;2024-02-21T08:41:23;5.27;;;4.10;;
20110;SDS011;10216;42.658;23.248;2024-02-21T08:43:49;4.53;;;3.40;;
20110;SDS011;10216;42.658;23.248;2024-02-21T08:46:15;3.47;;;2.67;;
20110;SDS011;10216;42.658;23.248;2024-02-21T08:48:40;6.63;;;3.90;;
20110;SDS011;10216;42.658;23.248;2024-02-21T08:51:06;4.97;;;3.23;;
20110;SDS011;10216;42.658;23.248;2024-02-21T08:53:31;5.40;;;3.50;;
20110;SDS011;10216;42.658;23.248;2024-02-21T08:55:56;4.60;;;3.23;;
20110;SDS011;10216;42.658;23.248;2024-02-21T08:58:22;5.57;;;3.63;;
20110;SDS011;10216;42.658;23.248;2024-02-21T09:00:49;5.80;;;3.50;;
20110;SDS011;10216;42.658;23.248;2024-02-21T09:03:14;4.80;;;4.30;;
20110;SDS011;10216;42.658;23.248;2024-02-21T09:05:40;5.20;;;3.50;;
20110;SDS011;10216;42.658;23.248;2024-02-21T09:08:06;6.40;;;3.80;;
20110;SDS011;10216;42.658;23.248;2024-02-21T09:10:31;5.53;;;3.57;;
20110;SDS011;10216;42.658;23.248;2024-02-21T09:12:56;3.67;;;3.07;;
20110;SDS011;10216;42.658;23.248;2024-02-21T09:15:21;3.60;;;3.07;;
20110;SDS011;10216;42.658;23.248;2024-02-21T09:17:47;4.87;;;3.13;;
20110;SDS011;10216;42.658;23.248;2024-02-21T09:20:12;4.43;;;3.43;;
20110;SDS011;10216;42.658;23.248;2024-02-21T09:22:38;5.40;;;3.53;;
20110;SDS011;10216;42.658;23.248;2024-02-21T09:25:05;4.50;;;3.40;;
20110;SDS011;10216;42.658;23.248;2024-02-21T09:27:30;3.33;;;2.97;;
20110;SDS011;10216;42.658;23.248;2024-02-21T09:29:55;4.13;;;3.67;;
20110;SDS011;10216;42.658;23.248;2024-02-21T09:32:21;4.73;;;3.67;;
20110;SDS011;10216;42.658;23.248;2024-02-21T09:34:46;3.93;;;3.27;;
20110;SDS011;10216;42.658;23.248;2024-02-21T09:37:11;3.57;;;3.17;;
20110;SDS011;10216;42.658;23.248;2024-02-21T09:39:37;4.10;;;3.17;;
20110;SDS011;10216;42.658;23.248;2024-02-21T09:42:05;3.77;;;3.27;;
20110;SDS011;10216;42.658;23.248;2024-02-21T09:44:39;4.20;;;3.47;;
20110;SDS011;10216;42.658;23.248;2024-02-21T09:47:12;5.43;;;4.00;;
20110;SDS011;10216;42.658;23.248;2024-02-21T09:49:41;5.10;;;3.70;;
20110;SDS011;10216;42.658;23.248;2024-02-21T09:52:07;5.03;;;4.03;;
20110;SDS011;10216;42.658;23.248;2024-02-21T09:54:33;6.53;;;4.37;;
20110;SDS011;10216;42.658;23.248;2024-02-21T09:57:02;5.93;;;4.03;;
20110;SDS011;10216;42.658;23.248;2024-02-21T09:59:28;4.13;;;3.30;;
20110;SDS011;10216;42.658;23.248;2024-02-21T10:01:54;3.10;;;2.70;;
20110;SDS011;10216;42.658;23.248;2024-02-21T10:04:20;3.63;;;3.20;;
20110;SDS011;10216;42.658;23.248;2024-02-21T10:06:45;5.30;;;3.30;;
20110;SDS011;10216;42.658;23.248;2024-02-21T10:09:32;4.00;;;2.87;;
20110;SDS011;10216;42.658;23.248;2024-02-21T10:12:10;4.57;;;2.87;;
20110;SDS011;10216;42.658;23.248;2024-02-21T10:14:36;3.87;;;3.10;;
20110;SDS011;10216;42.658;23.248;2024-02-21T10:17:01;4.30;;;3.00;;
20110;SDS011;10216;42.658;23.248;2024-02-21T10:19:28;3.33;;;3.00;;
20110;SDS011;10216;42.658;23.248;2024-02-21T10:22:03;3.47;;;3.17;;
20110;SDS011;10216;42.658;23.248;2024-02-21T10:24:29;4.23;;;3.30;;
20110;SDS011;10216;42.658;23.248;2024-02-21T10:27:04;3.77;;;2.97;;
20110;SDS011;10216;42.658;23.248;2024-02-21T10:29:33;3.90;;;3.00;;
20110;SDS011;10216;42.658;23.248;2024-02-21T10:34:31;3.43;;;3.00;;
20110;SDS011;10216;42.658;23.248;2024-02-21T10:37:02;2.57;;;2.37;;
20110;SDS011;10216;42.658;23.248;2024-02-21T10:39:28;4.20;;;3.03;;
20110;SDS011;10216;42.658;23.248;2024-02-21T10:41:54;3.07;;;2.70;;
20110;SDS011;10216;42.658;23.248;2024-02-21T10:44:21;3.67;;;2.90;;
20110;SDS011;10216;42.658;23.248;2024-02-21T10:46:48;3.20;;;2.53;;
20110;SDS011;10216;42.658;23.248;2024-02-21T10:49:16;4.77;;;2.90;;
20110;SDS011;10216;42.658;23.248;2024-02-21T10:51:45;4.10;;;3.23;;
20110;SDS011;10216;42.658;23.248;2024-02-21T10:54:19;3.97;;;3.00;;
20110;SDS011;10216;42.658;23.248;2024-02-21T10:56:49;3.80;;;2.70;;
20110;SDS011;10216;42.658;23.248;2024-02-21T10:59:15;3.50;;;2.40;;
20110;SDS011;10216;42.658;23.248;2024-02-21T11:01:41;3.83;;;3.00;;
20110;SDS011;10216;42.658;23.248;2024-02-21T11:04:10;4.93;;;3.33;;
20110;SDS011;10216;42.658;23.248;2024-02-21T11:06:37;3.03;;;2.73;;
20110;SDS011;10216;42.658;23.248;2024-02-21T11:09:04;3.27;;;2.47;;
20110;SDS011;10216;42.658;23.248;2024-02-21T11:11:32;2.57;;;2.10;;
20110;SDS011;10216;42.658;23.248;2024-02-21T11:14:07;3.10;;;2.30;;
20110;SDS011;10216;42.658;23.248;2024-02-21T11:16:36;2.53;;;1.97;;
20110;SDS011;10216;42.658;23.248;2024-02-21T11:19:06;3.00;;;2.43;;
20110;SDS011;10216;42.658;23.248;2024-02-21T11:21:35;3.33;;;2.20;;
20110;SDS011;10216;42.658;23.248;2024-02-21T11:24:03;3.57;;;2.20;;
20110;SDS011;10216;42.658;23.248;2024-02-21T11:26:29;2.47;;;1.97;;
20110;SDS011;10216;42.658;23.248;2024-02-21T11:29:01;2.23;;;1.80;;
20110;SDS011;10216;42.658;23.248;2024-02-21T11:31:43;2.57;;;1.80;;
20110;SDS011;10216;42.658;23.248;2024-02-21T11:34:12;1.97;;;1.67;;
20110;SDS011;10216;42.658;23.248;2024-02-21T11:36:50;2.33;;;2.13;;
20110;SDS011;10216;42.658;23.248;2024-02-21T11:41:44;2.50;;;2.13;;
20110;SDS011;10216;42.658;23.248;2024-02-21T11:44:09;2.27;;;2.00;;
20110;SDS011;10216;42.658;23.248;2024-02-21T11:46:35;2.47;;;2.20;;
20110;SDS011;10216;42.658;23.248;2024-02-21T11:49:00;2.30;;;1.80;;
20110;SDS011;10216;42.658;23.248;2024-02-21T11:51:28;3.43;;;2.57;;
20110;SDS011;10216;42.658;23.248;2024-02-21T11:53:54;3.87;;;2.07;;
20110;SDS011;10216;42.658;23.248;2024-02-21T11:56:19;2.33;;;1.77;;
20110;SDS011;10216;42.658;23.248;2024-02-21T11:58:48;2.20;;;2.00;;
20110;SDS011;10216;42.658;23.248;2024-02-21T12:01:14;2.27;;;1.80;;
20110;SDS011;10216;42.658;23.248;2024-02-21T12:03:39;2.67;;;1.80;;
20110;SDS011;10216;42.658;23.248;2024-02-21T12:06:06;3.30;;;2.20;;
20110;SDS011;10216;42.658;23.248;2024-02-21T12:08:44;1.70;;;1.60;;
20110;SDS011;10216;42.658;23.248;2024-02-21T12:11:16;2.60;;;1.70;;
20110;SDS011;10216;42.658;23.248;2024-02-21T12:13:42;1.80;;;1.70;;
20110;SDS011;10216;42.658;23.248;2024-02-21T12:16:07;2.10;;;1.90;;
20110;SDS011;10216;42.658;23.248;2024-02-21T12:18:32;3.10;;;1.70;;
20110;SDS011;10216;42.658;23.248;2024-02-21T12:20:58;2.03;;;1.80;;
20110;SDS011;10216;42.658;23.248;2024-02-21T12:23:26;1.40;;;1.30;;
20110;SDS011;10216;42.658;23.248;2024-02-21T12:25:51;2.93;;;1.20;;
20110;SDS011;10216;42.658;23.248;2024-02-21T12:28:19;1.60;;;1.30;;
20110;SDS011;10216;42.658;23.248;2024-02-21T12:30:44;2.10;;;1.37;;
20110;SDS011;10216;42.658;23.248;2024-02-21T12:33:10;2.20;;;1.30;;
20110;SDS011;10216;42.658;23.248;2024-02-21T12:35:35;1.67;;;1.50;;
20110;SDS011;10216;42.658;23.248;2024-02-21T12:38:02;1.00;;;1.00;;
20110;SDS011;10216;42.658;23.248;2024-02-21T12:40:27;0.70;;;0.70;;
20110;SDS011;10216;42.658;23.248;2024-02-21T12:42:57;1.67;;;1.30;;
20110;SDS011;10216;42.658;23.248;2024-02-21T12:45:23;2.37;;;1.33;;
20110;SDS011;10216;42.658;23.248;2024-02-21T12:47:48;1.40;;;1.30;;
20110;SDS011;10216;42.658;23.248;2024-02-21T12:50:15;1.20;;;1.10;;
20110;SDS011;10216;42.658;23.248;2024-02-21T12:52:40;1.80;;;1.70;;
20110;SDS011;10216;42.658;23.248;2024-02-21T12:55:05;2.93;;;1.93;;
20110;SDS011;10216;42.658;23.248;2024-02-21T12:57:31;1.90;;;1.70;;
20110;SDS011;10216;42.658;23.248;2024-02-21T12:59:56;1.43;;;1.27;;
20110;SDS011;10216;42.658;23.248;2024-02-21T13:02:21;1.60;;;1.50;;
20110;SDS011;10216;42.658;23.248;2024-02-21T13:04:47;2.60;;;1.83;;
20110;SDS011;10216;42.658;23.248;2024-02-21T13:07:12;1.33;;;1.20;;
20110;SDS011;10216;42.658;23.248;2024-02-21T13:09:37;1.87;;;1.60;;
20110;SDS011;10216;42.658;23.248;2024-02-21T13:12:03;1.67;;;1.57;;
20110;SDS011;10216;42.658;23.248;2024-02-21T13:14:28;2.70;;;1.87;;
20110;SDS011;10216;42.658;23.248;2024-02-21T13:16:54;1.70;;;1.60;;
20110;SDS011;10216;42.658;23.248;2024-02-21T13:19:19;2.37;;;2.00;;
20110;SDS011;10216;42.658;23.248;2024-02-21T13:21:44;4.27;;;2.70;;
20110;SDS011;10216;42.658;23.248;2024-02-21T13:24:09;3.23;;;2.23;;
20110;SDS011;10216;42.658;23.248;2024-02-21T13:26:35;2.60;;;2.33;;
20110;SDS011;10216;42.658;23.248;2024-02-21T13:29:00;2.43;;;1.93;;
20110;SDS011;10216;42.658;23.248;2024-02-21T13:31:25;2.43;;;1.80;;
20110;SDS011;10216;42.658;23.248;2024-02-21T13:33:51;2.23;;;1.73;;
20110;SDS011;10216;42.658;23.248;2024-02-21T13:36:17;2.90;;;2.13;;
20110;SDS011;10216;42.658;23.248;2024-02-21T13:38:43;2.23;;;1.40;;
20110;SDS011;10216;42.658;23.248;2024-02-21T13:41:08;1.97;;;1.57;;
20110;SDS011;10216;42.658;23.248;2024-02-21T13:43:34;1.53;;;0.97;;
20110;SDS011;10216;42.658;23.248;2024-02-21T13:46:00;0.70;;;0.70;;
20110;SDS011;10216;42.658;23.248;2024-02-21T13:48:27;2.37;;;1.10;;
20110;SDS011;10216;42.658;23.248;2024-02-21T13:50:54;0.87;;;0.87;;
20110;SDS011;10216;42.658;23.248;2024-02-21T13:53:19;1.10;;;1.10;;
20110;SDS011;10216;42.658;23.248;2024-02-21T13:55:45;1.20;;;0.80;;
20110;SDS011;10216;42.658;23.248;2024-02-21T13:58:11;1.23;;;1.13;;
20110;SDS011;10216;42.658;23.248;2024-02-21T14:00:36;1.53;;;1.17;;
20110;SDS011;10216;42.658;23.248;2024-02-21T14:03:01;1.13;;;1.13;;
20110;SDS011;10216;42.658;23.248;2024-02-21T14:05:27;1.90;;;1.43;;
20110;SDS011;10216;42.658;23.248;2024-02-21T14:07:52;0.97;;;0.93;;
20110;SDS011;10216;42.658;23.248;2024-02-21T14:10:19;4.23;;;1.70;;
20110;SDS011;10216;42.658;23.248;2024-02-21T14:12:45;0.87;;;0.87;;
20110;SDS011;10216;42.658;23.248;2024-02-21T14:15:10;1.47;;;1.27;;
20110;SDS011;10216;42.658;23.248;2024-02-21T14:17:35;0.97;;;0.83;;
20110;SDS011;10216;42.658;23.248;2024-02-21T14:20:01;1.50;;;1.40;;
20110;SDS011;10216;42.658;23.248;2024-02-21T14:22:26;2.13;;;1.30;;
20110;SDS011;10216;42.658;23.248;2024-02-21T14:24:52;1.20;;;1.10;;
20110;SDS011;10216;42.658;23.248;2024-02-21T14:27:18;0.97;;;0.90;;
20110;SDS011;10216;42.658;23.248;2024-02-21T14:29:43;0.90;;;0.90;;
20110;SDS011;10216;42.658;23.248;2024-02-21T14:32:10;0.97;;;0.97;;